Nearby METAR Reports

 

PAEN - Kenai, Alaska, USA
Distance from station: ESE 2mi, 4km
Updated: Sun, 22-Apr-2018 10:53pm AKDT
Overcast
Overcast
 Wind from NNE
Wind: NNE 9 mph , 15 km/h
Temperature: 43°F , 6°C
Wind Chill: 38°F , 3°C
Dew Point: 32°F , 0°C
Humidity: 66%
Barometer: 29.60 inHg , 1002.4 hPa
Clouds: Overcast
Visibility: 10 miles , 16 km
Cloud details: Overcast 8000 ft
2018/04/23 06:53 PAEN 230653Z AUTO 03008KT 10SM OVC080 06/00 A2960 RMK AO2 SLP025 T00560000 TSNO
PASX - Soldotna, Alaska, USA
Distance from station: SE 12mi, 19km
Updated: Sun, 22-Apr-2018 10:56pm AKDT
Overcast
Overcast
 Wind from NE
Wind: NE 5 mph , 7 km/h
Temperature: 45°F , 7°C
Wind Chill: 42°F , 6°C
Dew Point: 28°F , -2°C
Humidity: 53%
Barometer: 29.61 inHg , 1002.7 hPa
Clouds: Overcast
Visibility: 10 miles , 16 km
Cloud details: Overcast 7000 ft
2018/04/23 06:56 PASX 230656Z AUTO 05004KT 10SM OVC070 07/M02 A2961 RMK AO2 SLP037 T00671017
 
PANC - Anchorage Intl, Alaska, USA
Distance from station: NE 59mi, 96km
Updated: Sun, 22-Apr-2018 10:53pm AKDT
Overcast
Overcast
 Wind from SSW
Wind: SSW 5 mph , 7 km/h
Temperature: 45°F , 7°C
Wind Chill: 42°F , 6°C
Dew Point: 32°F , 0°C
Humidity: 61%
Barometer: 29.63 inHg , 1003.4 hPa
Clouds: Overcast
Visibility: 10 miles , 16 km
Cloud details: Few Clouds 7000 ft
Mostly cloudy 9500 ft
Overcast 20000 ft
2018/04/23 06:53 PANC 230653Z 20004KT 10SM FEW070 BKN095 OVC200 07/00 A2963 RMK AO2 SLP036 VIRGA SW-NW T00670000
PALH - Anchorage/Lake H, Alaska, USA
Distance from station: NE 61mi, 99km
Updated: Sun, 22-Apr-2018 10:53pm AKDT
Overcast
Overcast
 Wind from NNW
Wind: NNW 3 mph , 6 km/h
Temperature: 41°F , 5°C
Dew Point: 34°F , 1°C
Humidity: 76%
Barometer: 29.64 inHg , 1003.7 hPa
Clouds: Overcast
Visibility: 10 miles , 16 km
Cloud details: Overcast 10000 ft
2018/04/23 06:53 PALH 230653Z 33003KT 10SM OVC100 05/01 A2964 RMK AO2 SLP038 T00500006
 
PAHO - Homer, Alaska, USA
Distance from station: S 66mi, 106km
Updated: Sun, 22-Apr-2018 10:53pm AKDT
Overcast
Overcast
 Wind from calm
Wind: Calm
Temperature: 43°F , 6°C
Dew Point: 34°F , 1°C
Humidity: 71%
Barometer: 29.57 inHg , 1001.4 hPa
Clouds: Overcast
Visibility: 10 miles , 16 km
Cloud details: Few Clouds 5500 ft
Mostly cloudy 7000 ft
Overcast 8500 ft
2018/04/23 06:53 PAHO 230653Z 00000KT 10SM FEW055 BKN070 OVC085 06/01 A2957 RMK AO2 SLP012 T00610011
PAMR - Anchorage/Merril, Alaska, USA
Distance from station: NE 66mi, 106km
Updated: Sun, 22-Apr-2018 10:53pm AKDT
Mostly cloudy
Mostly cloudy
 Wind from WSW
Wind: WSW 5 mph , 7 km/h
Temperature: 43°F , 6°C
Wind Chill: 40°F , 4°C
Dew Point: 36°F , 2°C
Humidity: 76%
Barometer: 29.63 inHg , 1003.4 hPa
Clouds: Mostly cloudy
Visibility: 10 miles , 16 km
Cloud details: Partly cloudy 10000 ft
Mostly cloudy 20000 ft
2018/04/23 06:53 PAMR 230653Z 24004KT 10SM SCT100 BKN200 06/02 A2963 RMK AO2 SLP037 T00560017
 
PAED - Elmendorf Afb, Alaska, USA
Distance from station: NE 69mi, 110km
Updated: Sun, 22-Apr-2018 10:56pm AKDT
Overcast
Overcast
 Wind from NW
Wind: NW 8 mph , 13 km/h
Temperature: 43°F , 6°C
Wind Chill: 38°F , 3°C
Dew Point: 36°F , 2°C
Humidity: 76%
Barometer: 29.63 inHg , 1003.4 hPa
Clouds: Overcast
Visibility: 10 miles , 16 km
Cloud details: Overcast 8500 ft
2018/04/23 06:56 PAED 230656Z AUTO 31007KT 10SM OVC085 06/02 A2963 RMK AO2 SLP030 T00580017 $
PAWD - Seward, Alaska, USA
Distance from station: ESE 71mi, 115km
Updated: Sun, 22-Apr-2018 10:53pm AKDT
Overcast
Overcast
 Wind from calm
Wind: Calm
Temperature: 39°F , 4°C
Dew Point: 37°F , 3°C
Humidity: 93%
Barometer: 29.63 inHg , 1003.4 hPa
Clouds: Overcast
Visibility: 10 miles , 16 km
Cloud details: Mostly cloudy 6000 ft
Overcast 8000 ft
2018/04/23 06:53 PAWD 230653Z AUTO 00000KT 10SM BKN060 OVC080 04/03 A2963 RMK AO2 RAE11 SLP033 P0001 T00440033 TSNO $
 
PASC - Deadhorse, Alaska, USA
Distance from station: ENE 670mi, 1078km
Updated: Sun, 22-Apr-2018 10:53pm AKDT
Clear
Clear
 Wind from NE
Wind: NE 17 mph , 28 km/h
Temperature: 1°F , -17°C
Wind Chill: -19°F , -28°C
Dew Point: -4°F , -20°C
Humidity: 78%
Barometer: 30.17 inHg , 1021.7 hPa
Clouds: Clear
Visibility: 10 miles , 16 km
2018/04/23 06:53 PASC 230653Z 05015KT 10SM CLR M17/M20 A3017 RMK AO2 SLP218 T11721200
PAAD - Point Thomson, Alaska, USA
Distance from station: ENE 680mi, 1094km
Updated: Sun, 22-Apr-2018 11:15pm AKDT
Clear
Clear
 Wind from ENE
Wind: ENE 13 mph , 20 km/h
Temperature: -4°F , -20°C
Wind Chill: -23°F , -31°C
Dew Point: -8°F , -22°C
Humidity: 84%
Barometer: 30.16 inHg , 1021.3 hPa
Clouds: Clear
Visibility: 10 miles , 16 km
2018/04/23 07:15 PAAD 230715Z AUTO 06011KT 10SM CLR M20/M22 A3016 RMK AO2 T12001221


kenaipeople.com website

Dans Automotive

Lower Peninsula Power Sports

Freddies RoadHouse

Alaska Weather Net

United States Weather Group